»·PEaware :: SWA2499 KSAN-KLAS

SWA2499 :: KSAN-KLAS

FLIGHT INFORMATION

Flight Status: Arrived
Operator:
Southwest Airlines
More flights by this operator :: More flights under this callsign
Pilot: Alec D. (17934)
Aircraft: BOEING 737-200
(B732)
More flights by this aircraft type
Origin: KSAN San Diego Intl-Lindbergh
United States
Destination: KLAS McCarran Intl
United States
More flights between these airports :: More routes between these airports
Route: +PEBLE6 SXC LAX DAG CLARR3
File this flight plan on PilotEdge
Remarks:
Altitude:
(Current/Filed)
29,000ft
Speed:
(Current/Filed)
440kts
Departed: 28-Apr-19 08:52 AM
Arrived: 28-Apr-19 09:48 AM
Distance/Time
Traveled:
225nm/0:56
Distance/Time
To Go:
Arrived

Flight Plot

Page will automatically refresh every two minutes.

Flight plan parsing failed; only flown route is shown


Map Options




Map Legend


Flown Route
Filed Route
Departure Airport
Arrival Airport
Navaid (VOR, NDB)
Fix

Horizontal Profiles

Position Reports

Time Latitude Longitude Heading Altitude Ground
Speed
28-Apr-19 08:07 32.732374 -117.195986 309 21ft 0kts
28-Apr-19 08:08 32.732374 -117.195986 309 21ft 0kts
28-Apr-19 08:09 32.732374 -117.195986 309 21ft 0kts
28-Apr-19 08:10 32.732374 -117.195986 309 21ft 0kts
28-Apr-19 08:10 32.732374 -117.195986 309 21ft 0kts
28-Apr-19 08:12 32.732374 -117.195986 309 21ft 0kts
28-Apr-19 08:13 32.732374 -117.195986 309 21ft 0kts
28-Apr-19 08:13 32.732374 -117.195986 309 21ft 0kts
28-Apr-19 08:15 32.732374 -117.195986 309 21ft 0kts
28-Apr-19 08:16 32.732374 -117.195986 309 21ft 0kts
28-Apr-19 08:16 32.732374 -117.195986 309 21ft 0kts
28-Apr-19 08:17 32.732374 -117.195986 309 21ft 0kts
28-Apr-19 08:19 32.732374 -117.195986 309 21ft 0kts
28-Apr-19 08:19 32.732374 -117.195986 309 21ft 0kts
28-Apr-19 08:20 32.732374 -117.195986 309 21ft 0kts
28-Apr-19 08:21 32.732374 -117.195986 309 21ft 0kts
28-Apr-19 08:22 32.732374 -117.195986 309 21ft 0kts
28-Apr-19 08:23 32.732374 -117.195986 309 21ft 0kts
28-Apr-19 08:24 32.732374 -117.195986 309 21ft 0kts
28-Apr-19 08:25 32.732374 -117.195986 309 21ft 0kts
28-Apr-19 08:26 32.732374 -117.195986 309 21ft 0kts
28-Apr-19 08:27 32.732374 -117.195986 309 21ft 0kts
28-Apr-19 08:28 32.732374 -117.195986 309 21ft 0kts
28-Apr-19 08:29 32.732374 -117.195986 309 21ft 0kts
28-Apr-19 08:30 32.732374 -117.195986 309 21ft 0kts
28-Apr-19 08:31 32.732374 -117.195986 309 21ft 0kts
28-Apr-19 08:32 32.732374 -117.195986 309 21ft 0kts
28-Apr-19 08:33 32.732374 -117.195986 309 21ft 0kts
28-Apr-19 08:34 32.732374 -117.195986 309 21ft 0kts
28-Apr-19 08:35 32.732374 -117.195986 309 21ft 0kts
28-Apr-19 08:36 32.732374 -117.195986 309 21ft 0kts
28-Apr-19 08:37 32.732374 -117.195986 309 21ft 0kts
28-Apr-19 08:38 32.732374 -117.195986 309 21ft 0kts
28-Apr-19 08:39 32.732374 -117.195986 309 21ft 0kts
28-Apr-19 08:40 32.732075 -117.195556 309 21ft 2kts
28-Apr-19 08:41 32.732074 -117.195554 309 21ft 0kts
28-Apr-19 08:42 32.732074 -117.195554 309 21ft 0kts
28-Apr-19 08:43 32.732074 -117.195554 309 21ft 0kts
28-Apr-19 08:44 32.732074 -117.195554 309 21ft 0kts
28-Apr-19 08:45 32.732566 -117.195190 53 21ft 18kts
28-Apr-19 08:46 32.732420 -117.188828 105 21ft 24kts
28-Apr-19 08:47 32.730632 -117.181257 106 21ft 24kts
28-Apr-19 08:48 32.729612 -117.176835 90 21ft 10kts
28-Apr-19 08:49 32.729617 -117.176724 85 21ft 0kts
28-Apr-19 08:50 32.729724 -117.176155 69 21ft 13kts
28-Apr-19 08:51 32.732858 -117.186782 286 21ft 100kts
28-Apr-19 08:52 32.748935 -117.233390 304 1453ft 201kts
28-Apr-19 08:53 32.785998 -117.300928 301 4415ft 268kts
28-Apr-19 08:54 32.823684 -117.374871 299 8397ft 250kts
28-Apr-19 08:55 32.865849 -117.448335 304 10655ft 290kts
28-Apr-19 08:56 32.923703 -117.517858 325 13237ft 318kts
28-Apr-19 08:57 33.006671 -117.570799 325 14835ft 361kts
28-Apr-19 08:58 33.073989 -117.669160 296 14982ft 413kts
28-Apr-19 08:59 33.138577 -117.783233 308 15143ft 408kts
28-Apr-19 09:00 33.214653 -117.876492 307 18122ft 377kts
28-Apr-19 09:01 33.247974 -117.986794 275 20562ft 348kts
28-Apr-19 09:02 33.266504 -118.099965 285 22365ft 357kts
28-Apr-19 09:03 33.311292 -118.208950 286 23892ft 366kts
28-Apr-19 09:04 33.342108 -118.324187 286 25517ft 367kts
28-Apr-19 09:05 33.387397 -118.433822 301 26984ft 375kts
28-Apr-19 09:06 33.488555 -118.472578 2 28242ft 417kts
28-Apr-19 09:07 33.603281 -118.444360 7 29037ft 427kts
28-Apr-19 09:08 33.723404 -118.428544 357 28996ft 444kts
28-Apr-19 09:09 33.849766 -118.422699 356 28989ft 461kts
28-Apr-19 09:10 33.979163 -118.417604 16 28986ft 483kts
28-Apr-19 09:11 34.071625 -118.302875 67 28992ft 493kts
28-Apr-19 09:12 34.121523 -118.147794 70 28989ft 500kts
28-Apr-19 09:13 34.174881 -117.991608 65 28996ft 508kts
28-Apr-19 09:14 34.256445 -117.850917 50 28987ft 516kts
28-Apr-19 09:15 34.343019 -117.712375 58 28979ft 516kts
28-Apr-19 09:16 34.415644 -117.562275 61 28973ft 516kts
28-Apr-19 09:17 34.492415 -117.415174 55 28969ft 517kts
28-Apr-19 09:18 34.577549 -117.274535 53 28968ft 517kts
28-Apr-19 09:19 34.661186 -117.133082 54 28970ft 516kts
28-Apr-19 09:20 34.736750 -116.985386 63 28947ft 515kts
28-Apr-19 09:21 34.814912 -116.839121 49 28899ft 516kts
28-Apr-19 09:22 34.896472 -116.695278 66 28125ft 528kts
28-Apr-19 09:23 34.976611 -116.544851 42 26290ft 536kts
28-Apr-19 09:24 35.088297 -116.425673 41 24590ft 530kts
28-Apr-19 09:25 35.181197 -116.289171 44 23881ft 512kts
28-Apr-19 09:26 35.287108 -116.174890 41 23892ft 502kts
28-Apr-19 09:27 35.381171 -116.048085 49 22643ft 504kts
28-Apr-19 09:28 35.473786 -115.920607 43 20828ft 498kts
28-Apr-19 09:29 35.571128 -115.806392 41 19055ft 470kts
28-Apr-19 09:30 35.661570 -115.695096 43 17276ft 450kts
28-Apr-19 09:31 35.747819 -115.587727 47 15495ft 435kts
28-Apr-19 09:32 35.838526 -115.499380 9 13738ft 414kts
28-Apr-19 09:33 35.949620 -115.490683 357 13032ft 383kts
28-Apr-19 09:34 36.037625 -115.444263 62 13015ft 351kts
28-Apr-19 09:35 36.030091 -115.339342 113 11231ft 295kts
28-Apr-19 09:36 36.014881 -115.237531 85 9721ft 308kts
28-Apr-19 09:37 36.019158 -115.135077 97 8372ft 280kts
28-Apr-19 09:38 36.007122 -115.045034 94 8017ft 258kts
28-Apr-19 09:39 36.003934 -114.961281 94 7793ft 238kts
28-Apr-19 09:40 36.002917 -114.882594 85 7106ft 213kts
28-Apr-19 09:41 36.043746 -114.849252 324 6313ft 207kts
28-Apr-19 09:42 36.065391 -114.904809 284 5497ft 177kts
28-Apr-19 09:43 36.073864 -114.963629 271 4713ft 169kts
28-Apr-19 09:44 36.073579 -115.021557 269 3781ft 157kts
28-Apr-19 09:45 36.073824 -115.072922 267 3086ft 149kts
28-Apr-19 09:46 36.073655 -115.122948 269 2257ft 141kts
28-Apr-19 09:47 36.073736 -115.148205 290 2187ft 20kts
28-Apr-19 09:48 36.074202 -115.149403 299 2187ft 1kts
28-Apr-19 09:49 36.077067 -115.151760 359 2187ft 23kts
28-Apr-19 09:50 36.081085 -115.149449 56 2187ft 13kts
28-Apr-19 09:51 36.081740 -115.148225 63 2187ft 0kts

Navigation Log

Ident Type
Flight plan parsing failed, navigation log unavailable